createdAt,value
2018-04-28T00:00:19.022Z,0.80
2018-04-28T00:01:19.045Z,0.90
2018-04-28T00:02:19.012Z,0.90
2018-04-28T00:03:19.334Z,0.90
2018-04-28T00:04:19.002Z,0.80
2018-04-28T00:05:18.991Z,0.80
2018-04-28T00:06:19.347Z,0.80
2018-04-28T00:07:19.345Z,0.90
2018-04-28T00:08:18.975Z,0.90
2018-04-28T00:09:19.296Z,0.80
2018-04-28T00:10:18.966Z,0.80
2018-04-28T00:11:18.959Z,0.90
2018-04-28T00:12:18.982Z,0.80
2018-04-28T00:13:18.948Z,0.90
2018-04-28T00:14:19.294Z,0.90
2018-04-28T00:15:18.945Z,0.90
2018-04-28T00:16:19.290Z,0.80
2018-04-28T00:17:18.923Z,0.90
2018-04-28T00:18:19.245Z,1.00
2018-04-28T00:19:19.263Z,0.90
2018-04-28T00:20:18.903Z,1.00
2018-04-28T00:21:19.262Z,0.90
2018-04-28T00:22:19.280Z,0.90
2018-04-28T00:23:19.302Z,0.90
2018-04-28T00:24:18.884Z,1.00
2018-04-28T00:25:18.878Z,0.90
2018-04-28T00:26:18.872Z,0.80
2018-04-28T00:27:18.896Z,0.90
2018-04-28T00:28:19.222Z,0.80
2018-04-28T00:29:19.217Z,1.00
2018-04-28T00:30:19.194Z,1.00
2018-04-28T00:31:18.841Z,0.90
2018-04-28T00:32:18.837Z,0.90
2018-04-28T00:33:18.830Z,0.90
2018-04-28T00:34:18.826Z,1.00
2018-04-28T00:35:18.828Z,1.00
2018-04-28T00:36:19.141Z,1.00
2018-04-28T00:37:19.202Z,1.00
2018-04-28T00:38:18.805Z,0.90
2018-04-28T00:39:19.165Z,1.00
2018-04-28T00:40:18.791Z,1.10
2018-04-28T00:41:18.782Z,1.20
2018-04-28T00:42:19.141Z,1.10
2018-04-28T00:43:19.169Z,1.00
2018-04-28T00:44:18.766Z,1.10
2018-04-28T00:45:18.767Z,1.00
2018-04-28T00:46:18.755Z,1.10
2018-04-28T00:47:18.751Z,0.90
2018-04-28T00:48:18.742Z,0.90
2018-04-28T00:49:19.065Z,0.90
2018-04-28T00:50:18.730Z,0.90
2018-04-28T00:51:19.195Z,1.10
2018-04-28T00:52:18.754Z,1.20
2018-04-28T00:53:19.115Z,0.90
2018-04-28T00:54:18.711Z,1.00
2018-04-28T00:55:18.701Z,0.90
2018-04-28T00:56:19.064Z,1.10
2018-04-28T00:57:18.691Z,1.00
2018-04-28T00:58:19.015Z,1.00
2018-04-28T00:59:19.008Z,1.10
2018-04-28T01:00:19.040Z,1.00
2018-04-28T01:01:19.033Z,1.20
2018-04-28T01:02:18.661Z,0.90
2018-04-28T01:03:19.023Z,1.00
2018-04-28T01:04:19.045Z,0.90
2018-04-28T01:05:18.642Z,1.10
2018-04-28T01:06:18.638Z,1.10
2018-04-28T01:07:19.001Z,1.10
2018-04-28T01:08:19.023Z,1.30
2018-04-28T01:09:18.623Z,1.10
2018-04-28T01:10:18.961Z,1.10
2018-04-28T01:11:18.959Z,1.10
2018-04-28T01:12:18.971Z,1.20
2018-04-28T01:13:18.599Z,1.20
2018-04-28T01:14:18.593Z,1.00
2018-04-28T01:15:18.955Z,1.10
2018-04-28T01:16:18.910Z,1.30
2018-04-28T01:17:18.942Z,1.10
2018-04-28T01:18:18.899Z,1.30
2018-04-28T01:19:18.893Z,1.10
2018-04-28T01:20:18.560Z,1.00
2018-04-28T01:21:18.553Z,1.10
2018-04-28T01:22:18.909Z,1.20
2018-04-28T01:23:18.902Z,1.10
2018-04-28T01:24:18.535Z,1.00
2018-04-28T01:25:18.530Z,1.20
2018-04-28T01:26:18.527Z,1.20
2018-04-28T01:27:18.519Z,1.10
2018-04-28T01:28:18.519Z,1.10
2018-04-28T01:29:18.833Z,1.10
2018-04-28T01:30:18.499Z,1.30
2018-04-28T01:31:18.839Z,1.30
2018-04-28T01:32:18.486Z,1.10
2018-04-28T01:33:18.829Z,1.20
2018-04-28T01:34:18.838Z,1.10
2018-04-28T01:35:18.473Z,1.20
2018-04-28T01:36:18.812Z,1.70
2018-04-28T01:37:18.806Z,1.30
2018-04-28T01:38:18.452Z,1.10
2018-04-28T01:39:18.799Z,1.20
2018-04-28T01:40:18.442Z,1.30
2018-04-28T01:41:18.765Z,1.20
2018-04-28T01:42:18.433Z,1.30
2018-04-28T01:43:18.771Z,1.30
2018-04-28T01:44:18.764Z,1.30
2018-04-28T01:45:18.410Z,1.20
2018-04-28T01:46:18.407Z,1.30
2018-04-28T01:47:18.405Z,1.20
2018-04-28T01:48:18.739Z,1.20
2018-04-28T01:49:18.393Z,1.20
2018-04-28T01:50:18.728Z,1.30
2018-04-28T01:51:18.722Z,1.30
2018-04-28T01:52:18.376Z,1.30
2018-04-28T01:53:18.367Z,1.30
2018-04-28T01:54:18.364Z,1.30
2018-04-28T01:55:18.699Z,1.50
2018-04-28T01:56:18.349Z,1.40
2018-04-28T01:57:18.343Z,1.30
2018-04-28T01:58:18.336Z,1.20
2018-04-28T01:59:18.333Z,1.20
2018-04-28T02:00:18.325Z,1.30
2018-04-28T02:01:18.318Z,1.40
2018-04-28T02:02:18.726Z,1.50
2018-04-28T02:03:18.342Z,1.40
2018-04-28T02:04:18.668Z,1.20
2018-04-28T02:05:18.297Z,1.40
2018-04-28T02:06:18.617Z,1.50
2018-04-28T02:07:18.287Z,1.70
2018-04-28T02:08:18.674Z,1.70
2018-04-28T02:09:18.599Z,1.80
2018-04-28T02:10:18.272Z,1.80
2018-04-28T02:11:19.225Z,1.70
2018-04-28T02:12:18.582Z,1.50
2018-04-28T02:13:18.251Z,1.60
2018-04-28T02:14:18.605Z,1.70
2018-04-28T02:15:18.248Z,1.90
2018-04-28T02:16:18.233Z,1.50
2018-04-28T02:17:18.553Z,1.80
2018-04-28T02:18:18.554Z,1.50
2018-04-28T02:19:18.212Z,1.80
2018-04-28T02:20:18.569Z,1.70
2018-04-28T02:21:18.532Z,1.80
2018-04-28T02:22:18.195Z,2.00
2018-04-28T02:23:18.522Z,1.70
2018-04-28T02:24:18.185Z,1.90
2018-04-28T02:25:18.539Z,1.60
2018-04-28T02:26:18.174Z,1.70
2018-04-28T02:27:18.530Z,1.80
2018-04-28T02:28:18.196Z,1.90
2018-04-28T02:29:18.153Z,2.10
2018-04-28T02:30:18.518Z,2.00
2018-04-28T02:31:18.490Z,2.10
2018-04-28T02:32:18.136Z,2.00
2018-04-28T02:33:18.464Z,1.70
2018-04-28T02:34:18.475Z,1.80
2018-04-28T02:35:18.123Z,2.50
2018-04-28T02:36:18.121Z,2.20
2018-04-28T02:37:18.106Z,1.80
2018-04-28T02:38:18.451Z,1.90
2018-04-28T02:39:18.098Z,2.10
2018-04-28T02:40:18.123Z,1.90
2018-04-28T02:41:18.435Z,2.10
2018-04-28T02:42:18.445Z,2.10
2018-04-28T02:43:18.074Z,2.40
2018-04-28T02:44:18.067Z,1.90
2018-04-28T02:45:18.094Z,2.30
2018-04-28T02:46:18.089Z,2.20
2018-04-28T02:47:18.050Z,2.10
2018-04-28T02:48:18.043Z,2.10
2018-04-28T02:49:18.436Z,2.20
2018-04-28T02:50:18.397Z,2.10
2018-04-28T02:51:18.393Z,1.90
2018-04-28T02:52:18.019Z,2.20
2018-04-28T02:53:18.016Z,2.30
2018-04-28T02:54:18.373Z,2.20
2018-04-28T02:55:18.006Z,1.90
2018-04-28T02:56:17.998Z,2.00
2018-04-28T02:57:17.989Z,1.80
2018-04-28T02:58:18.352Z,2.00
2018-04-28T02:59:17.986Z,1.50
2018-04-28T03:00:17.979Z,1.70
2018-04-28T03:01:17.968Z,1.80
2018-04-28T03:02:17.964Z,1.60
2018-04-28T03:03:17.956Z,1.80
2018-04-28T03:04:17.955Z,1.70
2018-04-28T03:05:17.944Z,1.90
2018-04-28T03:06:17.946Z,1.90
2018-04-28T03:07:17.966Z,2.00
2018-04-28T03:08:17.932Z,2.20
2018-04-28T03:09:18.269Z,2.20
2018-04-28T03:10:17.913Z,1.80
2018-04-28T03:11:17.912Z,2.20
2018-04-28T03:12:18.302Z,2.10
2018-04-28T03:13:18.259Z,2.00
2018-04-28T03:14:17.897Z,2.00
2018-04-28T03:15:18.285Z,2.30
2018-04-28T03:16:17.880Z,2.20
2018-04-28T03:17:17.875Z,2.10
2018-04-28T03:18:18.230Z,2.20
2018-04-28T03:19:17.861Z,2.10
2018-04-28T03:20:18.201Z,2.00
2018-04-28T03:21:17.854Z,2.20
2018-04-28T03:22:17.848Z,2.50
2018-04-28T03:23:17.840Z,2.40
2018-04-28T03:24:17.849Z,2.30
2018-04-28T03:25:18.226Z,2.20
2018-04-28T03:26:17.827Z,2.20
2018-04-28T03:27:18.188Z,2.40
2018-04-28T03:28:17.810Z,2.40
2018-04-28T03:29:18.140Z,1.90
2018-04-28T03:30:17.803Z,2.00
2018-04-28T03:31:18.142Z,1.90
2018-04-28T03:32:17.790Z,2.30
2018-04-28T03:33:17.784Z,2.00
2018-04-28T03:34:17.779Z,1.70
2018-04-28T03:35:18.116Z,2.00
2018-04-28T03:36:18.092Z,2.20
2018-04-28T03:37:17.760Z,2.00
2018-04-28T03:38:17.753Z,2.30
2018-04-28T03:39:17.751Z,2.00
2018-04-28T03:40:17.742Z,1.90
2018-04-28T03:41:18.081Z,2.10
2018-04-28T03:42:18.125Z,2.00
2018-04-28T03:43:17.727Z,2.10
2018-04-28T03:44:17.717Z,2.10
2018-04-28T03:45:17.713Z,2.00
2018-04-28T03:46:17.708Z,2.20
2018-04-28T03:47:17.707Z,2.00
2018-04-28T03:48:17.694Z,2.20
2018-04-28T03:49:17.691Z,2.50
2018-04-28T03:50:17.682Z,2.70
2018-04-28T03:51:18.074Z,2.30
2018-04-28T03:52:18.016Z,2.20
2018-04-28T03:53:17.667Z,1.90
2018-04-28T03:54:17.659Z,1.90
2018-04-28T03:55:17.986Z,2.20
2018-04-28T03:56:17.995Z,2.00
2018-04-28T03:57:18.012Z,1.80
2018-04-28T03:58:18.002Z,2.10
2018-04-28T03:59:18.028Z,2.00
2018-04-28T04:00:17.956Z,2.20
2018-04-28T04:01:17.626Z,2.00
2018-04-28T04:02:17.617Z,2.00
2018-04-28T04:03:17.610Z,1.90
2018-04-28T04:04:17.970Z,2.10
2018-04-28T04:05:17.996Z,1.80
2018-04-28T04:06:17.593Z,2.00
2018-04-28T04:07:17.984Z,1.80
2018-04-28T04:08:17.581Z,1.90
2018-04-28T04:09:17.578Z,1.90
2018-04-28T04:10:17.570Z,1.80
2018-04-28T04:11:17.562Z,1.90
2018-04-28T04:12:17.558Z,1.80
2018-04-28T04:13:17.913Z,2.10
2018-04-28T04:14:17.577Z,2.10
2018-04-28T04:15:17.869Z,2.10
2018-04-28T04:16:17.867Z,2.00
2018-04-28T04:17:17.924Z,1.90
2018-04-28T04:18:17.954Z,2.20
2018-04-28T04:19:17.516Z,2.10
2018-04-28T04:20:17.510Z,2.20
2018-04-28T04:21:17.851Z,2.00
2018-04-28T04:22:17.505Z,2.20
2018-04-28T04:23:17.492Z,1.80
2018-04-28T04:24:17.489Z,2.30
2018-04-28T04:25:17.482Z,2.10
2018-04-28T04:26:17.508Z,2.30
2018-04-28T04:27:17.473Z,2.10
2018-04-28T04:28:17.467Z,2.40
2018-04-28T04:29:17.787Z,2.60
2018-04-28T04:30:17.457Z,2.30
2018-04-28T04:31:17.810Z,2.60
2018-04-28T04:32:17.442Z,2.10
2018-04-28T04:33:17.766Z,2.10
2018-04-28T04:34:17.436Z,2.00
2018-04-28T04:35:17.428Z,1.70
2018-04-28T04:36:17.769Z,2.00
2018-04-28T04:37:17.416Z,2.10
2018-04-28T04:38:17.755Z,2.00
2018-04-28T04:39:17.401Z,1.90
2018-04-28T04:40:17.739Z,1.90
2018-04-28T04:41:17.393Z,2.00
2018-04-28T04:42:17.389Z,2.00
2018-04-28T04:43:17.385Z,2.10
2018-04-28T04:44:17.736Z,2.30
2018-04-28T04:45:17.369Z,2.10
2018-04-28T04:46:17.690Z,2.00
2018-04-28T04:47:17.684Z,2.10
2018-04-28T04:48:17.696Z,2.10
2018-04-28T04:49:17.347Z,2.40
2018-04-28T04:50:17.339Z,1.90
2018-04-28T04:51:17.337Z,2.30
2018-04-28T04:52:17.728Z,3.30
2018-04-28T04:53:17.651Z,4.20
2018-04-28T04:54:17.320Z,4.70
2018-04-28T04:55:17.708Z,5.30
2018-04-28T04:56:17.668Z,6.10
2018-04-28T04:57:17.308Z,5.90
2018-04-28T04:58:17.623Z,6.60
2018-04-28T04:59:17.686Z,6.40
2018-04-28T05:00:17.289Z,6.80
2018-04-28T05:01:17.281Z,6.60
2018-04-28T05:02:17.273Z,6.80
